Time;durP1;ratioP1;P1;durP2;ratioP2;P2;SDS_P1;SDS_P2;PMS_P1;PMS_P2;Temp;Humidity;BMP_temperature;BMP_pressure;BME280_temperature;BME280_humidity;BME280_pressure;Samples;Min_cycle;Max_cycle;Signal;HPM_P1;HPM_P2
2022/06/09 00:01:39;;;;;;;12.13;6.73;;;14.10;99.90;;;;;;5019891;28;20464;-58
2022/06/09 00:04:10;;;;;;;14.03;5.77;;;14.10;99.90;;;;;;5018987;28;20942;-58
2022/06/09 00:06:43;;;;;;;12.20;5.53;;;14.10;99.90;;;;;;5020035;28;20759;-58
2022/06/09 00:09:11;;;;;;;11.20;5.77;;;14.10;99.90;;;;;;5019708;28;20831;-58
2022/06/09 00:11:41;;;;;;;8.40;5.37;;;14.10;99.90;;;;;;5019567;28;20463;-57
2022/06/09 00:14:13;;;;;;;11.37;5.53;;;14.10;99.90;;;;;;5019177;28;20904;-57
2022/06/09 00:16:41;;;;;;;12.27;5.10;;;14.10;99.90;;;;;;5019384;28;20897;-58
2022/06/09 00:19:15;;;;;;;18.27;5.70;;;14.10;99.90;;;;;;5019207;28;20464;-56
2022/06/09 00:21:42;;;;;;;13.47;6.40;;;14.00;99.90;;;;;;5019170;28;20469;-57
2022/06/09 00:24:18;;;;;;;10.60;5.63;;;14.00;99.90;;;;;;5019308;28;20475;-58
2022/06/09 00:26:48;;;;;;;7.80;5.33;;;13.90;99.90;;;;;;5018568;28;20464;-57
2022/06/09 00:29:18;;;;;;;9.50;5.17;;;13.90;99.90;;;;;;5019063;28;20468;-58
2022/06/09 00:31:45;;;;;;;11.10;6.20;;;13.80;99.90;;;;;;5018878;28;20464;-58
2022/06/09 00:34:16;;;;;;;10.73;6.43;;;13.80;99.90;;;;;;5018667;28;20464;-58
2022/06/09 00:36:46;;;;;;;15.93;5.50;;;13.80;99.90;;;;;;5018079;28;20487;-58
2022/06/09 00:39:13;;;;;;;9.50;4.77;;;13.80;99.90;;;;;;5019422;28;20475;-58
2022/06/09 00:41:42;;;;;;;9.57;5.47;;;13.90;99.90;;;;;;5018230;28;20510;-58
2022/06/09 00:44:17;;;;;;;11.17;5.33;;;13.90;99.90;;;;;;5019206;28;20439;-57
2022/06/09 00:46:47;;;;;;;10.10;5.50;;;13.80;99.90;;;;;;5018398;28;20470;-58
2022/06/09 00:49:22;;;;;;;16.17;5.70;;;13.90;99.90;;;;;;5018925;28;20475;-58
2022/06/09 00:51:54;;;;;;;8.50;5.20;;;13.90;99.90;;;;;;5017968;28;20475;-58
2022/06/09 00:54:24;;;;;;;11.20;5.13;;;13.90;99.90;;;;;;5018610;28;20470;-56
2022/06/09 00:56:54;;;;;;;12.83;5.00;;;13.90;99.90;;;;;;5018018;28;20456;-58
2022/06/09 00:59:26;;;;;;;10.57;5.07;;;13.90;99.90;;;;;;5018806;28;20468;-58
2022/06/09 01:01:54;;;;;;;13.13;5.27;;;13.90;99.90;;;;;;5018114;28;20518;-58
2022/06/09 01:04:24;;;;;;;11.80;5.27;;;13.90;99.90;;;;;;5018395;28;20464;-58
2022/06/09 01:06:55;;;;;;;8.30;5.00;;;13.90;99.90;;;;;;5018181;28;20464;-59
2022/06/09 01:09:27;;;;;;;10.03;4.97;;;13.90;99.90;;;;;;5017917;28;20431;-58
2022/06/09 01:11:58;;;;;;;13.63;5.40;;;13.80;99.90;;;;;;5018041;28;20464;-58
2022/06/09 01:14:27;;;;;;;10.90;5.20;;;13.90;99.90;;;;;;5018409;28;20766;-57
2022/06/09 01:17:07;;;;;;;8.47;5.57;;;13.90;99.90;;;;;;5018315;28;20471;-58
2022/06/09 01:19:49;;;;;;;12.30;5.17;;;13.90;99.90;;;;;;4999099;28;20897;-59
2022/06/09 01:22:36;;;;;;;12.00;5.20;;;13.90;99.90;;;;;;5005042;28;20463;-57
2022/06/09 01:25:36;;;;;;;12.00;5.27;;;13.90;99.90;;;;;;5018298;28;20474;-59
2022/06/09 01:28:55;;;;;;;10.00;4.67;;;13.80;99.90;;;;;;5017367;28;20746;-59
2022/06/09 01:31:31;;;;;;;13.93;4.77;;;13.80;99.90;;;;;;4983035;28;20473;-58
2022/06/09 01:34:06;;;;;;;8.00;4.47;;;13.80;99.90;;;;;;5015074;28;20784;-59
2022/06/09 01:36:41;;;;;;;12.47;4.70;;;13.80;99.90;;;;;;5017690;28;20495;-59
2022/06/09 01:39:08;;;;;;;10.00;5.07;;;13.80;99.90;;;;;;5017207;28;20460;-59
2022/06/09 01:41:36;;;;;;;8.07;4.10;;;13.80;99.90;;;;;;5018162;28;20460;-58
2022/06/09 01:44:04;;;;;;;9.87;4.47;;;13.80;99.90;;;;;;5017750;28;20562;-59
2022/06/09 01:46:34;;;;;;;16.07;5.50;;;13.80;99.90;;;;;;5017988;28;20468;-59
2022/06/09 01:49:04;;;;;;;12.07;5.20;;;13.80;99.90;;;;;;5017608;28;20873;-58
2022/06/09 01:51:40;;;;;;;12.80;4.50;;;13.70;99.90;;;;;;5017985;28;20472;-59
2022/06/09 01:54:13;;;;;;;12.50;4.60;;;13.80;99.90;;;;;;5017070;28;20498;-59
2022/06/09 01:56:46;;;;;;;6.80;4.73;;;13.70;99.90;;;;;;5018127;28;20475;-59
2022/06/09 01:59:16;;;;;;;13.70;5.10;;;13.70;99.90;;;;;;5017319;28;20472;-59
2022/06/09 02:01:55;;;;;;;8.07;4.20;;;13.70;99.90;;;;;;5017603;28;20517;-59
2022/06/09 02:04:25;;;;;;;9.93;4.70;;;13.70;99.90;;;;;;5017704;28;20468;-59
2022/06/09 02:06:55;;;;;;;8.37;4.00;;;13.70;99.90;;;;;;5017336;28;20534;-59
2022/06/09 02:09:27;;;;;;;11.73;4.27;;;13.70;99.90;;;;;;5016843;28;20439;-60
2022/06/09 02:11:57;;;;;;;11.80;4.67;;;13.70;99.90;;;;;;5017767;28;20905;-60
2022/06/09 02:14:31;;;;;;;10.03;4.40;;;13.70;99.90;;;;;;5016922;28;20491;-60
2022/06/09 02:17:00;;;;;;;8.43;4.73;;;13.60;99.90;;;;;;5017266;28;20779;-61
2022/06/09 02:19:28;;;;;;;7.40;4.60;;;13.60;99.90;;;;;;5017403;28;20460;-59
2022/06/09 02:21:56;;;;;;;9.20;4.20;;;13.60;99.90;;;;;;5017179;28;20824;-59
2022/06/09 02:24:27;;;;;;;11.80;5.80;;;13.60;99.90;;;;;;5017203;28;20464;-59
2022/06/09 02:26:57;;;;;;;10.50;4.60;;;13.60;99.90;;;;;;5017334;28;20567;-59
2022/06/09 02:29:24;;;;;;;14.30;4.40;;;13.70;99.90;;;;;;5017548;28;20522;-58
2022/06/09 02:32:11;;;;;;;10.97;5.13;;;13.60;99.90;;;;;;5017410;28;20471;-59
2022/06/09 02:34:42;;;;;;;11.37;5.27;;;13.60;99.90;;;;;;5016751;28;20925;-60
2022/06/09 02:37:09;;;;;;;14.83;5.50;;;13.60;99.90;;;;;;5018217;28;20470;-60
2022/06/09 02:39:36;;;;;;;13.33;5.53;;;13.60;99.90;;;;;;5017448;28;20566;-61
2022/06/09 02:42:07;;;;;;;9.10;5.60;;;13.60;99.90;;;;;;5017529;28;20952;-60
2022/06/09 02:44:34;;;;;;;11.73;6.23;;;13.60;99.90;;;;;;5016957;28;21191;-60
2022/06/09 02:47:03;;;;;;;15.60;6.40;;;13.50;99.90;;;;;;5018080;28;20449;-60
2022/06/09 02:49:32;;;;;;;10.13;5.90;;;13.50;99.90;;;;;;5017466;28;20468;-61
2022/06/09 02:51:59;;;;;;;15.23;6.50;;;13.50;99.90;;;;;;5017352;28;20468;-61
2022/06/09 02:54:27;;;;;;;12.40;6.37;;;13.50;64.40;;;;;;5017322;28;20941;-61
2022/06/09 02:56:54;;;;;;;8.20;6.20;;;13.50;52.30;;;;;;5016866;28;20554;-60
2022/06/09 02:59:22;;;;;;;14.27;6.67;;;13.40;70.00;;;;;;5016809;28;20533;-61
2022/06/09 03:01:49;;;;;;;14.57;6.90;;;13.50;99.90;;;;;;5016372;28;21032;-61
2022/06/09 03:04:16;;;;;;;12.97;7.23;;;13.40;99.90;;;;;;5015332;28;20528;-61
2022/06/09 03:06:45;;;;;;;13.37;7.80;;;13.40;99.90;;;;;;5014297;28;20476;-61
2022/06/09 03:09:12;;;;;;;15.30;8.63;;;13.50;99.90;;;;;;5015821;28;20478;-61
2022/06/09 03:11:39;;;;;;;18.27;9.60;;;13.50;99.90;;;;;;5015516;28;20818;-61
2022/06/09 03:14:07;;;;;;;21.40;8.13;;;13.50;99.90;;;;;;5016175;28;20496;-61
2022/06/09 03:16:34;;;;;;;14.43;8.17;;;13.50;99.90;;;;;;5015991;28;20475;-61
2022/06/09 03:19:01;;;;;;;13.70;8.10;;;13.40;99.90;;;;;;5017425;28;20787;-62
2022/06/09 03:21:28;;;;;;;20.17;8.63;;;13.40;99.90;;;;;;5015351;28;20460;-61
2022/06/09 03:23:58;;;;;;;11.73;6.80;;;13.40;99.90;;;;;;5015911;28;20956;-61
2022/06/09 03:26:25;;;;;;;22.93;9.23;;;13.40;99.90;;;;;;5015761;28;20465;-62
2022/06/09 03:28:53;;;;;;;15.10;9.13;;;13.40;99.90;;;;;;5017911;28;20486;-61
2022/06/09 03:31:22;;;;;;;16.40;9.23;;;13.40;99.90;;;;;;5019647;28;20462;-61
2022/06/09 03:33:50;;;;;;;17.57;9.60;;;13.40;99.90;;;;;;5020185;28;20478;-61
2022/06/09 03:36:17;;;;;;;15.37;8.97;;;13.40;99.90;;;;;;5020659;28;20586;-61
2022/06/09 03:38:44;;;;;;;20.27;10.57;;;13.40;99.90;;;;;;5020151;28;20766;-61
2022/06/09 03:41:13;;;;;;;23.50;10.60;;;13.40;99.90;;;;;;5020953;28;20468;-61
2022/06/09 03:43:40;;;;;;;17.60;12.07;;;13.50;99.90;;;;;;5021385;28;20459;-61
2022/06/09 03:46:09;;;;;;;26.57;12.43;;;13.40;99.90;;;;;;5020920;28;20468;-61
2022/06/09 03:48:38;;;;;;;18.40;13.10;;;13.40;99.90;;;;;;5020115;28;20468;-62
2022/06/09 03:51:05;;;;;;;20.07;15.00;;;13.40;99.90;;;;;;5021141;28;20464;-61
2022/06/09 03:53:32;;;;;;;22.47;17.40;;;13.40;99.90;;;;;;5020279;28;20491;-61
2022/06/09 03:55:59;;;;;;;24.23;17.40;;;13.40;99.90;;;;;;5019198;28;20445;-61
2022/06/09 03:58:28;;;;;;;22.47;18.63;;;13.40;99.90;;;;;;5019837;28;20467;-61
2022/06/09 04:00:55;;;;;;;22.67;17.57;;;13.40;99.90;;;;;;5020961;28;20464;-61
2022/06/09 04:03:24;;;;;;;25.13;18.23;;;13.40;99.90;;;;;;5020721;28;20523;-61
2022/06/09 04:05:53;;;;;;;25.00;16.70;;;13.50;99.90;;;;;;5020739;28;20536;-61
2022/06/09 04:08:20;;;;;;;24.87;18.60;;;13.50;99.90;;;;;;5020322;28;20479;-62
2022/06/09 04:10:48;;;;;;;29.03;19.03;;;13.40;99.90;;;;;;5020800;28;20468;-62
2022/06/09 04:13:15;;;;;;;24.50;17.93;;;13.40;99.90;;;;;;5019967;28;20534;-62
2022/06/09 04:15:46;;;;;;;23.40;15.80;;;13.40;99.90;;;;;;5020097;28;20471;-61
2022/06/09 04:18:13;;;;;;;24.10;16.73;;;13.50;99.90;;;;;;5019082;28;21049;-62
2022/06/09 04:20:40;;;;;;;27.47;17.47;;;13.50;99.90;;;;;;5018324;28;20439;-62
2022/06/09 04:23:10;;;;;;;22.40;16.30;;;13.50;99.90;;;;;;5019515;28;20468;-61
2022/06/09 04:25:38;;;;;;;24.90;16.60;;;13.60;99.90;;;;;;5020311;28;20466;-62
2022/06/09 04:28:05;;;;;;;25.10;16.20;;;13.60;99.90;;;;;;5020508;28;20745;-62
2022/06/09 04:30:32;;;;;;;18.00;15.47;;;13.50;99.90;;;;;;5019222;28;20464;-61
2022/06/09 04:33:01;;;;;;;20.40;15.63;;;13.60;99.90;;;;;;5019429;28;20468;-62
2022/06/09 04:35:42;;;;;;;22.23;16.20;;;13.50;99.90;;;;;;5020566;28;20500;-62
2022/06/09 04:38:11;;;;;;;26.60;16.10;;;13.50;99.90;;;;;;5019617;28;20468;-62
2022/06/09 04:40:39;;;;;;;24.73;17.20;;;13.60;99.90;;;;;;5018770;28;20464;-62
2022/06/09 04:43:08;;;;;;;21.50;16.77;;;13.60;97.50;;;;;;5019605;28;20558;-62
2022/06/09 04:45:39;;;;;;;24.47;16.57;;;13.60;99.90;;;;;;5018348;28;20468;-62
2022/06/09 04:48:10;;;;;;;20.93;17.50;;;13.50;99.90;;;;;;5019957;28;20915;-62
2022/06/09 04:50:38;;;;;;;30.10;18.13;;;13.50;99.90;;;;;;5019050;28;20479;-62
2022/06/09 04:53:07;;;;;;;29.47;20.57;;;13.50;99.90;;;;;;5016883;28;20817;-62
2022/06/09 04:55:34;;;;;;;26.33;18.90;;;13.50;99.90;;;;;;5017835;28;20929;-63
2022/06/09 04:58:04;;;;;;;22.73;17.73;;;13.50;99.90;;;;;;5019197;28;20964;-62
2022/06/09 05:00:32;;;;;;;23.53;18.30;;;13.50;99.90;;;;;;5019858;28;20468;-62
2022/06/09 05:03:01;;;;;;;23.53;18.87;;;13.50;99.90;;;;;;5018531;28;20542;-62
2022/06/09 05:05:37;;;;;;;24.03;17.83;;;13.50;99.90;;;;;;5018091;28;20890;-61
2022/06/09 05:08:07;;;;;;;24.30;19.60;;;13.70;99.90;;;;;;5019055;28;20784;-61
2022/06/09 05:10:35;;;;;;;32.40;21.00;;;13.60;99.90;;;;;;5018786;28;20464;-62
2022/06/09 05:13:05;;;;;;;27.60;18.50;;;13.70;99.90;;;;;;5017933;28;20469;-62
2022/06/09 05:15:36;;;;;;;28.93;17.00;;;13.70;99.90;;;;;;5018874;28;20460;-62
2022/06/09 05:18:04;;;;;;;24.57;16.87;;;13.80;99.90;;;;;;5017930;28;20470;-62
2022/06/09 05:20:32;;;;;;;24.93;16.60;;;13.80;99.90;;;;;;5017301;28;20459;-62
2022/06/09 05:23:02;;;;;;;26.93;17.67;;;13.70;19.10;;;;;;5017399;28;20531;-63
2022/06/09 05:25:28;;;;;;;22.20;16.03;;;13.70;1.00;;;;;;5017577;28;20460;-63
2022/06/09 05:27:59;;;;;;;28.97;16.37;;;13.70;1.00;;;;;;5018182;28;20876;-62
2022/06/09 05:30:26;;;;;;;22.63;15.67;;;13.70;1.00;;;;;;5018798;28;20487;-63
2022/06/09 05:32:56;;;;;;;25.20;16.27;;;13.70;1.00;;;;;;5017398;28;20456;-65
2022/06/09 05:35:24;;;;;;;22.83;15.37;;;13.70;1.00;;;;;;5017200;28;20507;-64
2022/06/09 05:46:10;;;;;;;27.47;16.23;;;13.80;1.00;;;;;;5014139;28;20438;-65
2022/06/09 05:48:37;;;;;;;22.80;15.63;;;13.80;1.00;;;;;;5014858;28;21237;-64
2022/06/09 05:51:05;;;;;;;20.20;16.00;;;13.90;1.00;;;;;;5015799;28;20821;-65
2022/06/09 05:53:35;;;;;;;25.57;16.40;;;13.90;1.00;;;;;;5015339;28;20823;-65
2022/06/09 05:56:03;;;;;;;16.87;14.47;;;13.80;1.00;;;;;;5016285;28;20476;-66
2022/06/09 05:58:30;;;;;;;22.53;15.07;;;13.90;1.00;;;;;;5012234;28;20768;-65
2022/06/09 06:00:57;;;;;;;16.63;14.10;;;13.90;1.00;;;;;;5031127;28;20757;-66
2022/06/09 06:03:24;;;;;;;28.40;15.07;;;13.90;1.00;;;;;;5017926;28;20483;-66
2022/06/09 06:08:39;;;;;;;20.37;16.37;;;13.90;1.00;;;;;;5030674;28;20979;-66
2022/06/09 06:11:06;;;;;;;25.03;16.00;;;14.00;1.00;;;;;;5034794;28;20462;-67
2022/06/09 06:13:43;;;;;;;21.73;17.17;;;13.90;20.60;;;;;;5037064;28;20475;-67
2022/06/09 06:16:13;;;;;;;33.43;17.80;;;14.00;99.90;;;;;;5020402;28;20475;-66
2022/06/09 06:18:40;;;;;;;21.13;16.87;;;14.00;99.90;;;;;;5035630;28;20467;-67
2022/06/09 06:21:12;;;;;;;33.10;17.83;;;14.00;1.00;;;;;;5035647;28;20478;-67
2022/06/09 06:23:40;;;;;;;29.90;18.63;;;14.10;1.00;;;;;;5036505;28;20467;-67
2022/06/09 06:26:11;;;;;;;21.40;17.10;;;14.10;1.00;;;;;;5024776;28;20468;-67
2022/06/09 06:28:39;;;;;;;25.10;17.90;;;14.10;1.00;;;;;;5036468;28;20467;-64
2022/06/09 06:31:06;;;;;;;24.53;17.70;;;14.10;1.00;;;;;;5018106;28;20472;-66
2022/06/09 06:33:33;;;;;;;31.63;19.40;;;14.00;1.00;;;;;;5035345;28;20467;-66
2022/06/09 06:36:00;;;;;;;31.17;20.83;;;14.10;99.90;;;;;;5029293;28;20488;-66
2022/06/09 06:38:27;;;;;;;23.17;19.73;;;14.10;1.00;;;;;;5036787;28;20471;-67
2022/06/09 06:40:56;;;;;;;30.50;19.80;;;14.10;99.90;;;;;;5020357;28;20468;-66
2022/06/09 06:43:30;;;;;;;29.10;19.43;;;14.30;1.00;;;;;;5035067;28;20467;-67
2022/06/09 06:45:58;;;;;;;26.90;18.43;;;14.30;51.50;;;;;;5032094;28;20517;-67
2022/06/09 06:48:25;;;;;;;26.60;18.67;;;14.30;1.00;;;;;;5016053;28;20475;-66
2022/06/09 06:50:52;;;;;;;26.60;18.20;;;14.30;99.90;;;;;;5017556;28;20467;-66
2022/06/09 06:53:25;;;;;;;23.37;18.50;;;14.30;99.90;;;;;;5035206;28;20470;-66
2022/06/09 06:55:52;;;;;;;29.60;18.60;;;14.20;99.90;;;;;;5035021;28;20948;-67
2022/06/09 06:58:21;;;;;;;29.30;17.30;;;14.20;99.90;;;;;;5018698;28;20529;-69
2022/06/09 07:00:48;;;;;;;29.33;17.30;;;14.10;1.00;;;;;;5032316;28;20500;-68
2022/06/09 07:03:15;;;;;;;27.13;18.90;;;14.00;1.00;;;;;;5020905;28;20438;-66
2022/06/09 07:05:42;;;;;;;28.40;17.63;;;14.10;99.90;;;;;;5039348;28;20572;-66
2022/06/09 07:08:09;;;;;;;29.77;19.30;;;14.20;99.90;;;;;;5029985;28;20467;-65
2022/06/09 07:10:39;;;;;;;25.70;17.10;;;14.20;99.90;;;;;;5038700;28;20525;-66
2022/06/09 07:13:07;;;;;;;27.80;17.90;;;14.30;99.90;;;;;;5026667;28;20465;-69
2022/06/09 07:15:35;;;;;;;22.20;16.50;;;14.30;1.00;;;;;;5039341;28;20501;-65
2022/06/09 07:18:06;;;;;;;22.43;17.53;;;14.30;1.00;;;;;;5037506;28;20736;-67
2022/06/09 07:20:33;;;;;;;28.57;18.03;;;14.40;1.00;;;;;;5040021;28;20808;-67
2022/06/09 07:23:02;;;;;;;28.87;19.37;;;14.40;1.00;;;;;;5033222;28;20474;-69
2022/06/09 07:25:30;;;;;;;23.30;15.83;;;14.40;1.00;;;;;;5040352;28;20455;-69
2022/06/09 07:27:58;;;;;;;23.83;17.83;;;14.30;1.00;;;;;;5035622;28;20472;-69
2022/06/09 07:30:28;;;;;;;22.63;16.13;;;14.50;1.00;;;;;;5028582;28;20438;-67
2022/06/09 07:32:59;;;;;;;24.43;17.50;;;14.60;1.00;;;;;;5030995;28;20468;-68
2022/06/09 07:35:29;;;;;;;25.77;16.17;;;14.50;99.90;;;;;;5028320;28;20520;-69
2022/06/09 07:37:56;;;;;;;22.00;15.63;;;14.80;99.90;;;;;;5039517;28;20856;-69
2022/06/09 07:40:25;;;;;;;26.47;16.17;;;14.80;99.90;;;;;;5028296;28;20463;-67
2022/06/09 07:42:52;;;;;;;22.17;13.93;;;15.00;99.90;;;;;;5034515;28;20453;-67
2022/06/09 07:45:20;;;;;;;21.03;14.53;;;14.90;78.90;;;;;;5028729;28;20880;-64
2022/06/09 07:47:50;;;;;;;20.73;15.70;;;14.80;99.50;;;;;;5039380;28;20566;-70
2022/06/09 07:50:21;;;;;;;22.63;15.13;;;14.90;57.90;;;;;;5033559;28;20896;-71
2022/06/09 07:52:48;;;;;;;20.07;14.80;;;14.90;35.00;;;;;;5038601;28;20471;-69
2022/06/09 07:55:22;;;;;;;21.07;16.37;;;14.90;32.70;;;;;;5031019;28;20910;-67
2022/06/09 07:57:51;;;;;;;26.87;16.80;;;14.80;37.30;;;;;;5038992;28;20553;-65
2022/06/09 08:00:20;;;;;;;21.17;16.97;;;14.80;60.30;;;;;;5027113;28;20468;-69
2022/06/09 08:02:50;;;;;;;30.20;18.33;;;14.70;72.60;;;;;;5033523;28;20467;-66
2022/06/09 08:05:21;;;;;;;22.43;17.70;;;14.60;88.10;;;;;;5033695;28;20829;-74
2022/06/09 08:07:48;;;;;;;24.60;18.87;;;14.50;99.90;;;;;;5020807;28;20460;-67
2022/06/09 08:10:21;;;;;;;22.23;19.47;;;14.50;99.90;;;;;;5016781;28;20476;-68
2022/06/09 08:12:51;;;;;;;25.37;20.37;;;14.50;99.90;;;;;;5019325;28;20780;-73
2022/06/09 08:15:19;;;;;;;27.17;19.13;;;14.50;99.90;;;;;;5021106;28;20503;-69
2022/06/09 08:17:46;;;;;;;25.40;18.07;;;14.60;99.90;;;;;;5016517;28;20481;-73
2022/06/09 08:20:14;;;;;;;28.00;19.50;;;14.80;99.90;;;;;;5028427;28;20480;-69
2022/06/09 08:22:43;;;;;;;23.10;18.63;;;15.00;64.80;;;;;;5033430;28;20554;-69
2022/06/09 08:25:15;;;;;;;22.83;18.17;;;15.10;19.90;;;;;;5029555;28;20882;-66
2022/06/09 08:27:43;;;;;;;21.07;18.73;;;15.30;14.60;;;;;;5036746;28;20820;-69
2022/06/09 08:30:14;;;;;;;24.23;20.17;;;15.30;1.00;;;;;;5039005;28;20489;-68
2022/06/09 08:32:44;;;;;;;25.23;21.43;;;15.40;1.00;;;;;;5018204;28;20728;-69
2022/06/09 08:35:18;;;;;;;28.40;20.70;;;15.20;1.00;;;;;;5016065;28;20911;-69
2022/06/09 08:37:48;;;;;;;27.90;20.60;;;15.30;1.00;;;;;;5000389;28;20519;-68
2022/06/09 08:40:22;;;;;;;23.47;18.20;;;15.30;1.00;;;;;;5037890;28;20460;-68
2022/06/09 08:43:15;;;;;;;23.43;19.43;;;15.20;1.00;;;;;;5022832;28;20748;-68
2022/06/09 08:45:46;;;;;;;25.50;17.10;;;15.40;1.00;;;;;;5036667;28;20434;-68
2022/06/09 08:48:18;;;;;;;24.83;17.97;;;15.50;1.00;;;;;;5023584;28;20524;-68
2022/06/09 08:50:53;;;;;;;20.90;17.17;;;15.70;1.00;;;;;;5028218;28;20467;-68
2022/06/09 08:53:28;;;;;;;21.33;17.00;;;15.70;1.00;;;;;;5029765;28;20456;-69
2022/06/09 08:56:00;;;;;;;19.80;15.77;;;15.80;1.00;;;;;;5027392;28;20498;-69
2022/06/09 08:58:32;;;;;;;23.20;17.23;;;15.80;1.00;;;;;;5032690;28;20494;-68
2022/06/09 09:01:07;;;;;;;20.67;16.70;;;15.90;1.00;;;;;;5029938;28;20487;-69
2022/06/09 09:03:38;;;;;;;20.93;16.90;;;16.10;1.00;;;;;;5031393;28;20463;-68
2022/06/09 09:06:08;;;;;;;19.80;17.80;;;16.30;1.00;;;;;;5032449;28;20902;-68
2022/06/09 09:08:38;;;;;;;19.17;17.20;;;16.70;1.00;;;;;;5031735;28;20437;-68
2022/06/09 09:11:26;;;;;;;19.37;17.30;;;16.90;1.00;;;;;;5027189;28;20468;-67
2022/06/09 09:13:59;;;;;;;25.90;17.90;;;17.10;1.00;;;;;;5033398;28;20463;-67
2022/06/09 09:16:39;;;;;;;21.23;18.20;;;17.30;1.00;;;;;;5032676;28;20818;-68
2022/06/09 09:19:18;;;;;;;18.80;16.80;;;17.20;1.00;;;;;;5036000;28;20475;-67
2022/06/09 09:22:03;;;;;;;24.43;17.00;;;17.10;1.00;;;;;;5026073;28;20466;-66
2022/06/09 09:24:41;;;;;;;20.67;18.17;;;17.00;1.00;;;;;;5037941;28;20455;-67
2022/06/09 09:27:20;;;;;;;20.07;17.80;;;16.80;1.00;;;;;;5035208;28;20898;-67
2022/06/09 09:29:52;;;;;;;22.43;19.00;;;16.80;1.00;;;;;;5031385;28;20743;-70
2022/06/09 09:32:23;;;;;;;24.53;19.77;;;16.50;1.00;;;;;;5025582;28;20768;-69
2022/06/09 09:34:53;;;;;;;22.60;19.57;;;16.30;1.00;;;;;;5029375;28;20480;-70
2022/06/09 09:37:37;;;;;;;19.93;17.60;;;16.10;1.00;;;;;;5032274;28;20464;-67
2022/06/09 09:40:17;;;;;;;18.00;15.87;;;15.90;1.00;;;;;;5025592;28;20459;-68
2022/06/09 09:42:49;;;;;;;18.43;15.47;;;15.70;1.00;;;;;;5024712;28;20910;-69
2022/06/09 09:45:22;;;;;;;15.43;13.83;;;15.50;1.00;;;;;;5028779;28;20470;-68
2022/06/09 09:47:55;;;;;;;15.33;13.83;;;15.30;1.00;;;;;;5032475;28;20468;-69
2022/06/09 09:50:33;;;;;;;17.13;15.27;;;15.30;1.00;;;;;;5030645;28;20473;-69
2022/06/09 09:53:04;;;;;;;18.40;16.70;;;15.40;1.00;;;;;;5026407;28;20467;-69
2022/06/09 09:55:51;;;;;;;22.37;18.60;;;15.60;26.80;;;;;;5024338;28;20881;-67
2022/06/09 09:58:33;;;;;;;20.43;18.17;;;16.00;46.40;;;;;;5023429;28;20460;-70
2022/06/09 10:01:05;;;;;;;21.23;16.27;;;16.10;21.70;;;;;;4998905;28;20488;-71
2022/06/09 10:09:17;;;;;;;16.10;13.73;;;18.90;1.00;;;;;;5024481;28;20458;-67
2022/06/09 10:11:55;;;;;;;17.77;14.60;;;19.30;1.00;;;;;;5033046;28;20852;-71
2022/06/09 10:14:36;;;;;;;16.27;14.57;;;18.70;1.00;;;;;;5018025;28;20460;-71
2022/06/09 10:17:09;;;;;;;16.13;14.47;;;18.50;1.00;;;;;;5026797;28;20585;-65
2022/06/09 10:19:42;;;;;;;15.90;14.43;;;18.00;1.00;;;;;;5025097;28;20910;-70
2022/06/09 10:22:19;;;;;;;16.60;14.53;;;18.30;1.00;;;;;;5025492;28;20535;-72
2022/06/09 10:24:53;;;;;;;14.70;13.37;;;18.30;1.00;;;;;;5028504;28;20466;-68
2022/06/09 10:27:27;;;;;;;18.73;14.57;;;18.10;1.00;;;;;;5035625;28;20760;-67
2022/06/09 10:30:06;;;;;;;14.17;12.77;;;18.00;1.00;;;;;;5027272;28;20467;-66
2022/06/09 10:32:47;;;;;;;13.33;12.03;;;18.10;1.00;;;;;;5015415;28;20515;-67
2022/06/09 10:35:23;;;;;;;14.00;11.50;;;18.30;1.00;;;;;;5026079;28;20953;-67
2022/06/09 10:37:56;;;;;;;12.70;11.50;;;19.00;99.90;;;;;;5018445;28;20517;-68
2022/06/09 10:40:34;;;;;;;12.97;11.43;;;19.20;99.90;;;;;;5030912;28;20943;-68
2022/06/09 10:43:08;;;;;;;13.77;10.37;;;19.20;99.90;;;;;;5022152;28;20463;-69
2022/06/09 10:45:46;;;;;;;13.37;11.30;;;18.70;99.90;;;;;;5033537;28;20935;-67
2022/06/09 10:57:03;;;;;;;10.47;7.70;;;16.80;1.00;;;;;;5031230;28;20565;-66
2022/06/09 10:59:37;;;;;;;7.10;5.47;;;16.60;1.00;;;;;;5037003;28;20489;-65
2022/06/09 11:02:15;;;;;;;6.10;5.50;;;16.50;1.00;;;;;;5031574;28;20447;-65
2022/06/09 11:04:43;;;;;;;6.93;6.00;;;16.60;1.00;;;;;;5038029;28;20805;-64
2022/06/09 11:07:34;;;;;;;6.60;5.90;;;16.60;1.00;;;;;;5025295;28;20470;-65
2022/06/09 11:10:13;;;;;;;6.53;5.93;;;16.90;1.00;;;;;;5002749;28;20894;-66
2022/06/09 11:12:51;;;;;;;8.60;6.67;;;17.00;99.90;;;;;;5034415;28;20943;-65
2022/06/09 11:15:32;;;;;;;8.83;7.20;;;16.90;99.90;;;;;;5029680;28;20625;-65
2022/06/09 11:18:22;;;;;;;5.70;5.10;;;17.10;99.90;;;;;;5027334;28;20945;-65
2022/06/09 11:20:59;;;;;;;5.37;4.87;;;17.20;99.90;;;;;;5022099;28;20467;-67
2022/06/09 11:23:40;;;;;;;6.67;5.27;;;17.40;99.90;;;;;;5025165;28;20472;-65
2022/06/09 11:26:17;;;;;;;5.17;4.00;;;17.80;99.90;;;;;;5034510;28;20508;-68
2022/06/09 11:28:57;;;;;;;4.80;3.73;;;18.30;99.90;;;;;;5034854;28;20481;-65
2022/06/09 11:31:52;;;;;;;3.70;3.30;;;18.80;99.90;;;;;;5040030;28;20459;-65
2022/06/09 11:34:51;;;;;;;8.83;4.60;;;19.10;99.90;;;;;;5021294;28;20485;-65
2022/06/09 11:37:42;;;;;;;5.20;4.50;;;19.60;99.90;;;;;;5013191;28;20971;-64
2022/06/09 11:40:21;;;;;;;5.70;5.20;;;20.00;99.90;;;;;;5026314;28;20463;-67
2022/06/09 11:43:09;;;;;;;4.00;3.60;;;20.70;99.90;;;;;;5039285;28;20467;-64
2022/06/09 11:45:43;;;;;;;3.50;3.20;;;21.00;99.90;;;;;;5028777;28;20463;-64
2022/06/09 11:48:32;;;;;;;5.10;3.27;;;21.70;99.90;;;;;;5031092;28;20519;-64
2022/06/09 11:51:04;;;;;;;6.27;4.00;;;22.20;99.90;;;;;;5033038;28;20463;-64
2022/06/09 11:53:38;;;;;;;5.40;4.90;;;22.00;99.90;;;;;;5036528;28;20794;-64
2022/06/09 11:56:36;;;;;;;4.90;4.27;;;22.80;99.90;;;;;;5034575;28;20786;-64
2022/06/09 11:59:15;;;;;;;6.57;4.53;;;23.20;99.90;;;;;;5026941;28;20463;-64
2022/06/09 12:01:56;;;;;;;5.33;4.33;;;22.70;99.90;;;;;;5001241;28;20555;-64
2022/06/09 12:04:38;;;;;;;8.40;6.30;;;23.00;99.90;;;;;;5034350;28;20468;-64
2022/06/09 12:07:26;;;;;;;6.03;5.43;;;23.50;99.90;;;;;;5023739;28;20498;-64
2022/06/09 12:10:23;;;;;;;6.30;5.67;;;23.30;99.90;;;;;;5032287;28;20545;-65
2022/06/09 12:13:15;;;;;;;7.53;6.23;;;22.70;99.90;;;;;;5038570;28;20470;-63
2022/06/09 12:15:56;;;;;;;8.50;6.90;;;21.80;99.90;;;;;;5024683;28;20587;-63
2022/06/09 12:18:48;;;;;;;7.47;6.60;;;21.90;99.90;;;;;;5035371;28;20470;-64
2022/06/09 12:21:26;;;;;;;9.63;7.27;;;22.80;99.90;;;;;;4995970;28;20571;-64
2022/06/09 12:24:30;;;;;;;6.70;6.00;;;23.70;99.90;;;;;;5001447;28;20461;-63
2022/06/09 12:27:21;;;;;;;10.40;6.60;;;23.50;99.90;;;;;;5025255;28;20512;-64
2022/06/09 12:30:28;;;;;;;7.40;6.70;;;23.20;99.90;;;;;;5020437;28;20464;-65
2022/06/09 12:33:30;;;;;;;8.23;6.83;;;22.70;99.90;;;;;;5031801;28;20793;-64
2022/06/09 12:36:04;;;;;;;8.50;6.70;;;23.00;99.90;;;;;;5030565;28;20561;-63
2022/06/09 12:38:37;;;;;;;7.80;6.10;;;23.00;99.90;;;;;;5019880;28;20527;-63
2022/06/09 12:41:16;;;;;;;8.87;7.00;;;22.90;99.90;;;;;;5027989;28;20474;-65
2022/06/09 12:43:45;;;;;;;8.33;7.40;;;22.80;99.90;;;;;;5037242;28;20776;-64
2022/06/09 12:46:26;;;;;;;10.43;8.60;;;22.10;99.90;;;;;;5015926;28;20464;-63
2022/06/09 12:48:55;;;;;;;7.87;7.00;;;21.30;99.90;;;;;;5022853;28;20466;-63
2022/06/09 12:51:26;;;;;;;7.03;6.33;;;21.00;99.90;;;;;;5027729;28;20549;-64
2022/06/09 12:53:57;;;;;;;7.80;7.00;;;20.80;99.90;;;;;;5037123;28;20467;-64
2022/06/09 12:56:29;;;;;;;6.30;5.50;;;20.80;99.90;;;;;;5024553;28;20597;-64
2022/06/09 12:58:58;;;;;;;9.30;6.40;;;20.70;99.90;;;;;;5032704;28;20563;-64
2022/06/09 13:01:30;;;;;;;6.37;5.13;;;21.40;99.90;;;;;;5022914;28;20467;-64
2022/06/09 13:04:02;;;;;;;5.43;4.90;;;22.20;99.90;;;;;;5026069;28;20761;-64
2022/06/09 13:06:35;;;;;;;9.77;5.30;;;22.00;99.90;;;;;;5028929;28;20469;-63
2022/06/09 13:09:21;;;;;;;7.27;5.67;;;21.60;99.90;;;;;;5009748;28;20477;-64
2022/06/09 13:14:36;;;;;;;4.23;2.77;;;20.30;99.90;;;;;;5018435;28;20505;-63
2022/06/09 13:17:09;;;;;;;2.93;2.63;;;18.80;99.90;;;;;;5006656;28;20492;-65
2022/06/09 13:19:39;;;;;;;3.83;2.50;;;18.50;99.90;;;;;;5026204;28;20491;-63
2022/06/09 13:22:09;;;;;;;5.37;3.10;;;17.90;99.90;;;;;;5020917;28;20493;-62
2022/06/09 13:24:41;;;;;;;3.70;2.67;;;17.10;99.90;;;;;;5016052;28;20470;-65
2022/06/09 13:27:13;;;;;;;3.80;2.80;;;17.20;99.90;;;;;;4996886;28;20457;-66
2022/06/09 13:29:53;;;;;;;3.20;2.90;;;16.70;99.90;;;;;;5036743;28;20467;-65
2022/06/09 13:32:31;;;;;;;6.40;3.27;;;16.80;99.90;;;;;;5026536;28;20918;-65